Time;durP1;ratioP1;P1;durP2;ratioP2;P2;SDS_P1;SDS_P2;PMS_P1;PMS_P2;Temp;Humidity;BMP_temperature;BMP_pressure;BME280_temperature;BME280_humidity;BME280_pressure;Samples;Min_cycle;Max_cycle;Signal;HPM_P1;HPM_P2
2023/05/08 00:00:48;;;;;;;;;8.40;8.00;;;;;11.54;55.37;99732.88;5981977;29;96361;-61
2023/05/08 00:03:53;;;;;;;;;9.00;8.60;;;;;11.51;55.11;99727.06;5981686;29;96928;-60
2023/05/08 00:06:57;;;;;;;;;11.00;10.00;;;;;11.49;55.47;99731.84;5995694;29;96710;-61
2023/05/08 00:10:00;;;;;;;;;9.00;9.00;;;;;11.41;55.71;99732.06;5998737;29;96258;-60
2023/05/08 00:13:03;;;;;;;;;8.40;7.00;;;;;11.15;55.61;99736.38;5973128;29;96670;-60
2023/05/08 00:16:08;;;;;;;;;8.20;8.00;;;;;11.11;55.69;99732.41;5982983;29;96382;-61
2023/05/08 00:19:13;;;;;;;;;9.40;9.40;;;;;10.97;55.41;99735.28;5961554;29;96320;-61
2023/05/08 00:22:16;;;;;;;;;7.60;7.00;;;;;10.95;55.32;99727.41;5961568;29;96363;-60
2023/05/08 00:25:19;;;;;;;;;8.60;7.60;;;;;10.76;55.13;99737.09;5960614;29;96247;-60
2023/05/08 00:28:22;;;;;;;;;6.00;6.00;;;;;10.86;55.07;99731.31;5973667;29;98380;-60
2023/05/08 00:31:26;;;;;;;;;5.50;5.00;;;;;10.81;54.80;99731.09;5979533;29;98373;-61
2023/05/08 00:34:30;;;;;;;;;7.00;7.00;;;;;10.75;54.69;99727.34;5997602;29;97105;-61
2023/05/08 00:37:34;;;;;;;;;8.60;7.60;;;;;10.89;54.58;99740.88;5996812;29;97447;-61
2023/05/08 00:40:37;;;;;;;;;9.40;8.40;;;;;10.79;54.33;99733.19;5985356;29;96577;-60
2023/05/08 00:43:40;;;;;;;;;9.00;6.00;;;;;10.82;54.78;99736.28;5983912;29;96697;-60
2023/05/08 00:46:45;;;;;;;;;6.25;5.25;;;;;10.70;54.96;99747.88;5983506;29;97041;-60
2023/05/08 00:49:50;;;;;;;;;8.40;8.40;;;;;10.65;54.75;99748.44;5984264;29;96173;-60
2023/05/08 00:52:54;;;;;;;;;8.00;8.00;;;;;10.61;54.90;99749.06;5984423;29;96387;-60
2023/05/08 00:55:58;;;;;;;;;7.00;6.60;;;;;10.59;55.49;99754.69;5965816;29;96312;-61
2023/05/08 00:59:03;;;;;;;;;6.40;6.40;;;;;10.55;55.49;99757.97;5959992;29;96724;-60
2023/05/08 01:02:07;;;;;;;;;9.00;7.80;;;;;10.61;55.09;99749.06;5962963;29;96839;-60
2023/05/08 01:05:13;;;;;;;;;7.75;7.75;;;;;10.32;55.69;99758.25;5981984;29;96303;-60
2023/05/08 01:08:16;;;;;;;;;10.00;9.00;;;;;10.16;56.10;99764.81;5964828;29;96270;-61
2023/05/08 01:11:27;;;;;;;;;6.00;6.00;;;;;10.29;55.88;99766.75;5959937;29;96282;-60
2023/05/08 01:14:44;;;;;;;;;8.75;7.75;;;;;10.32;55.94;99764.47;5944397;29;98452;-60
2023/05/08 01:18:00;;;;;;;;;7.00;6.50;;;;;10.16;55.71;99764.81;5961928;29;96304;-60
2023/05/08 01:21:12;;;;;;;;;5.60;5.60;;;;;10.25;55.63;99771.72;5963342;29;96917;-60
2023/05/08 01:24:33;;;;;;;;;5.60;5.60;;;;;10.46;55.35;99761.88;5960871;29;96361;-60
2023/05/08 01:28:03;;;;;;;;;8.00;8.00;;;;;10.63;54.78;99773.97;5973429;29;96238;-61
2023/05/08 01:31:19;;;;;;;;;8.60;8.60;;;;;10.76;54.21;99774.03;5967183;29;96333;-60
2023/05/08 01:34:31;;;;;;;;;8.00;8.00;;;;;10.80;54.50;99769.88;5995217;29;98418;-60
2023/05/08 01:37:46;;;;;;;;;6.00;6.00;;;;;10.76;54.01;99764.06;5978762;29;96276;-60
2023/05/08 01:40:54;;;;;;;;;8.00;6.67;;;;;10.70;54.49;99772.16;5981271;29;96332;-61
2023/05/08 01:44:10;;;;;;;;;9.00;8.00;;;;;10.84;54.19;99772.00;5981203;29;96258;-60
2023/05/08 01:47:16;;;;;;;;;6.00;5.40;;;;;10.92;54.14;99776.38;5980415;29;96367;-60
2023/05/08 01:50:25;;;;;;;;;8.00;7.75;;;;;10.98;53.96;99783.66;5964705;29;96260;-60
2023/05/08 01:53:33;;;;;;;;;10.00;9.40;;;;;10.98;54.16;99778.28;5957504;29;96524;-60
2023/05/08 01:56:40;;;;;;;;;6.00;5.00;;;;;10.96;53.79;99777.63;5981814;29;96480;-60
2023/05/08 01:59:45;;;;;;;;;7.00;7.00;;;;;11.06;53.46;99771.84;5956849;29;96931;-60
2023/05/08 02:02:50;;;;;;;;;9.00;9.00;;;;;11.11;53.04;99769.38;5958824;29;96391;-61
2023/05/08 02:05:59;;;;;;;;;8.50;8.50;;;;;10.98;52.75;99758.56;5971521;29;96252;-61
2023/05/08 02:09:02;;;;;;;;;8.75;8.75;;;;;10.90;53.21;99764.13;5972191;29;96675;-61
2023/05/08 02:12:09;;;;;;;;;12.00;10.50;;;;;10.93;53.19;99778.03;5965255;29;98306;-60
2023/05/08 02:15:16;;;;;;;;;6.60;6.60;;;;;10.95;53.60;99767.88;5973991;29;96212;-60
2023/05/08 02:18:21;;;;;;;;;6.00;6.00;;;;;10.86;53.13;99769.09;5980576;29;96637;-60
2023/05/08 02:21:27;;;;;;;;;5.50;5.50;;;;;10.91;53.41;99774.69;5996693;29;96328;-60
2023/05/08 02:24:34;;;;;;;;;6.40;6.00;;;;;11.02;53.58;99773.28;5988493;29;96502;-60
2023/05/08 02:27:39;;;;;;;;;7.75;6.25;;;;;10.96;53.74;99774.09;5960780;29;96796;-60
2023/05/08 02:30:44;;;;;;;;;6.20;6.20;;;;;11.09;53.70;99774.16;5978487;29;96400;-61
2023/05/08 02:33:50;;;;;;;;;9.40;9.40;;;;;10.86;54.14;99779.88;5982728;29;96271;-60
2023/05/08 02:36:55;;;;;;;;;8.00;8.00;;;;;10.79;54.25;99779.03;5974350;29;96520;-60
2023/05/08 02:39:59;;;;;;;;;8.60;8.60;;;;;10.79;54.52;99779.03;5969428;29;96312;-60
2023/05/08 02:43:05;;;;;;;;;10.00;9.50;;;;;10.68;54.76;99785.81;5970613;29;96112;-60
2023/05/08 02:46:12;;;;;;;;;9.20;9.20;;;;;10.53;55.12;99773.50;5995795;29;96174;-61
2023/05/08 02:49:27;;;;;;;;;9.00;7.60;;;;;10.48;55.57;99784.06;5996855;29;96334;-60
2023/05/08 02:52:35;;;;;;;;;10.00;9.00;;;;;10.55;55.40;99779.53;5965766;29;97328;-61
2023/05/08 02:55:44;;;;;;;;;9.00;9.00;;;;;10.65;54.75;99785.41;5996102;29;96321;-61
2023/05/08 02:59:09;;;;;;;;;8.00;7.60;;;;;10.71;54.67;99788.13;5994483;29;96909;-61
2023/05/08 03:02:16;;;;;;;;;8.00;7.50;;;;;10.66;54.43;99795.13;5987450;29;96246;-60
2023/05/08 03:05:25;;;;;;;;;8.00;8.00;;;;;10.57;54.48;99785.56;6000461;29;96317;-61
2023/05/08 03:08:34;;;;;;;;;7.50;7.50;;;;;10.72;54.06;99792.47;5978400;29;96266;-60
2023/05/08 03:11:42;;;;;;;;;6.75;6.75;;;;;10.60;53.95;99786.00;5993326;29;96407;-61
2023/05/08 03:14:55;;;;;;;;;9.00;8.00;;;;;10.57;54.23;99788.25;5976611;29;96562;-60
2023/05/08 03:18:06;;;;;;;;;5.00;5.00;;;;;10.45;54.28;99785.31;5985768;29;96333;-60
2023/05/08 03:21:12;;;;;;;;;9.50;9.50;;;;;10.57;54.15;99781.00;5977324;29;96753;-60
2023/05/08 03:24:22;;;;;;;;;9.00;8.25;;;;;10.54;54.08;99796.75;5991637;29;96650;-60
2023/05/08 03:27:29;;;;;;;;;10.00;9.60;;;;;10.55;54.13;99793.84;5986744;29;96616;-60
2023/05/08 03:30:37;;;;;;;;;6.25;6.25;;;;;10.43;53.92;99807.06;5983849;29;96336;-60
2023/05/08 03:33:45;;;;;;;;;7.00;7.00;;;;;10.62;53.99;99796.56;5977085;29;96381;-60
2023/05/08 03:36:48;;;;;;;;;8.00;7.20;;;;;10.69;53.89;99800.16;5990553;29;96679;-60
2023/05/08 03:39:55;;;;;;;;;8.00;8.00;;;;;10.78;53.59;99805.16;5974216;29;96393;-60
2023/05/08 03:43:01;;;;;;;;;7.60;7.60;;;;;10.78;53.04;99802.47;5995895;29;96475;-61
2023/05/08 03:46:06;;;;;;;;;9.00;8.00;;;;;10.71;52.86;99798.06;6001956;29;96406;-60
2023/05/08 03:49:12;;;;;;;;;8.50;8.00;;;;;10.77;52.50;99797.28;5987180;29;96384;-60
2023/05/08 03:52:16;;;;;;;;;9.00;9.00;;;;;10.63;53.18;99798.25;6001602;29;97543;-61
2023/05/08 03:55:21;;;;;;;;;8.20;8.00;;;;;10.64;53.45;99806.16;5995906;29;96419;-61
2023/05/08 03:58:29;;;;;;;;;7.00;7.00;;;;;10.50;53.65;99809.81;5981124;29;96428;-60
2023/05/08 04:01:39;;;;;;;;;9.00;9.00;;;;;10.37;53.52;99807.84;5986595;29;97164;-60
2023/05/08 04:04:50;;;;;;;;;7.00;7.00;;;;;10.14;54.23;99806.41;5972949;29;96296;-60
2023/05/08 04:07:59;;;;;;;;;7.00;6.40;;;;;10.25;53.78;99822.91;5996398;29;96421;-60
2023/05/08 04:11:12;;;;;;;;;6.00;6.00;;;;;9.51;53.86;99748.94;5971783;29;96806;-60
2023/05/08 04:14:19;;;;;;;;;10.40;10.00;;;;;9.93;54.27;99824.28;5991148;29;99444;-60
2023/05/08 04:17:34;;;;;;;;;8.00;8.00;;;;;9.95;54.28;99822.25;5999687;29;96384;-61
2023/05/08 04:20:40;;;;;;;;;8.40;8.40;;;;;9.73;54.05;99828.66;5984940;29;96341;-60
2023/05/08 04:23:45;;;;;;;;;7.00;6.00;;;;;9.83;54.30;99821.09;5969769;29;96795;-60
2023/05/08 04:26:51;;;;;;;;;7.50;7.00;;;;;9.89;53.82;99836.47;5984395;29;98416;-60
2023/05/08 04:29:56;;;;;;;;;7.25;7.00;;;;;9.98;53.22;99831.78;5998135;29;96599;-60
2023/05/08 04:33:02;;;;;;;;;9.00;7.40;;;;;10.02;53.56;99851.09;5997169;29;97342;-61
2023/05/08 04:36:11;;;;;;;;;9.00;8.20;;;;;10.00;53.63;99857.50;5998095;29;96439;-60
2023/05/08 04:39:15;;;;;;;;;7.00;7.00;;;;;9.94;53.67;99852.06;6000396;29;96368;-60
2023/05/08 04:42:20;;;;;;;;;6.00;6.00;;;;;9.97;54.03;99855.19;5983201;29;96397;-61
2023/05/08 04:45:24;;;;;;;;;6.00;6.00;;;;;10.08;53.48;99864.59;5987786;29;96712;-60
2023/05/08 04:48:30;;;;;;;;;7.25;7.00;;;;;10.10;52.78;99854.47;5990490;29;96341;-60
2023/05/08 04:51:33;;;;;;;;;8.00;8.00;;;;;10.28;52.90;99865.63;5986888;29;96507;-60
2023/05/08 04:54:37;;;;;;;;;6.00;6.00;;;;;10.45;52.92;99876.13;5985401;29;96438;-60
2023/05/08 04:57:41;;;;;;;;;6.00;6.00;;;;;10.45;51.61;99865.34;5989850;29;96217;-60
2023/05/08 05:00:45;;;;;;;;;7.00;6.00;;;;;10.40;52.56;99861.38;6002995;29;96883;-60
2023/05/08 05:03:49;;;;;;;;;7.00;6.00;;;;;10.34;52.06;99875.63;6000647;29;96706;-60
2023/05/08 05:06:53;;;;;;;;;7.50;7.50;;;;;10.51;51.87;99881.53;5989655;29;96566;-60
2023/05/08 05:09:56;;;;;;;;;7.00;7.00;;;;;10.53;52.28;99884.88;6015955;29;96817;-60
2023/05/08 05:13:01;;;;;;;;;7.00;5.20;;;;;10.44;52.22;99886.06;5986062;29;96287;-60
2023/05/08 05:16:05;;;;;;;;;8.00;7.50;;;;;10.57;52.30;99890.72;6008653;29;96646;-60
2023/05/08 05:19:09;;;;;;;;;9.00;9.00;;;;;10.67;51.86;99900.13;5985305;29;96279;-60
2023/05/08 05:22:12;;;;;;;;;9.00;9.00;;;;;10.90;52.03;99891.75;5986048;29;96311;-60
2023/05/08 05:25:16;;;;;;;;;7.00;6.80;;;;;10.95;51.01;99899.22;5986803;29;96400;-60
2023/05/08 05:28:21;;;;;;;;;8.50;8.00;;;;;11.15;51.00;99895.59;5999991;29;96892;-60
2023/05/08 05:31:25;;;;;;;;;9.00;8.00;;;;;11.14;50.81;99907.44;5999967;29;96310;-61
2023/05/08 05:34:29;;;;;;;;;7.00;7.00;;;;;11.17;50.51;99892.72;6002910;29;96294;-61
2023/05/08 05:37:32;;;;;;;;;7.00;6.75;;;;;11.08;50.48;99902.03;5978065;29;98414;-60
2023/05/08 05:40:35;;;;;;;;;8.00;7.25;;;;;11.33;50.93;99905.03;5983068;29;96353;-60
2023/05/08 05:43:40;;;;;;;;;8.00;8.00;;;;;11.48;50.69;99908.44;5984724;29;97528;-60
2023/05/08 05:46:44;;;;;;;;;5.00;4.80;;;;;11.58;50.43;99906.97;5986082;29;96441;-61
2023/05/08 05:49:47;;;;;;;;;6.00;5.00;;;;;11.66;50.53;99908.69;5986965;29;96665;-61
2023/05/08 05:52:51;;;;;;;;;9.00;9.00;;;;;11.66;50.04;99903.28;5989014;29;96332;-61
2023/05/08 05:55:55;;;;;;;;;8.00;7.75;;;;;11.80;49.93;99914.97;5987507;29;98400;-60
2023/05/08 05:59:00;;;;;;;;;9.00;8.50;;;;;11.87;49.86;99905.88;5987549;29;96346;-61
2023/05/08 06:02:04;;;;;;;;;6.40;6.40;;;;;11.87;49.84;99913.13;6009682;29;96620;-60
2023/05/08 06:05:08;;;;;;;;;6.75;6.75;;;;;11.87;50.04;99918.53;6008561;29;96643;-62
2023/05/08 06:08:12;;;;;;;;;9.00;6.60;;;;;11.92;49.45;99918.75;5996071;29;99500;-61
2023/05/08 06:11:15;;;;;;;;;7.40;7.40;;;;;11.93;49.02;99918.53;5987442;29;96615;-61
2023/05/08 06:14:20;;;;;;;;;7.60;7.00;;;;;11.93;48.88;99932.03;5965005;29;96654;-60
2023/05/08 06:17:24;;;;;;;;;8.00;7.00;;;;;11.97;48.81;99937.91;5986332;29;96491;-60
2023/05/08 06:20:28;;;;;;;;;8.00;8.00;;;;;11.91;49.07;99931.44;5984196;29;96322;-60
2023/05/08 06:23:31;;;;;;;;;7.40;7.00;;;;;12.07;48.91;99924.81;5984305;29;98478;-61
2023/05/08 06:26:34;;;;;;;;;8.00;7.00;;;;;12.30;48.46;99938.75;5985563;29;96361;-61
2023/05/08 06:29:39;;;;;;;;;10.40;9.60;;;;;12.24;48.09;99934.16;5984705;29;96863;-61
2023/05/08 06:32:42;;;;;;;;;7.00;6.00;;;;;12.27;47.87;99944.56;5983767;29;96341;-60
2023/05/08 06:35:46;;;;;;;;;6.00;5.75;;;;;12.31;47.19;99937.72;5998962;29;98394;-61
2023/05/08 06:38:50;;;;;;;;;5.00;5.00;;;;;12.36;47.11;99943.34;5984201;29;96254;-61
2023/05/08 06:41:53;;;;;;;;;6.00;5.00;;;;;12.40;46.82;99941.88;5983703;29;99054;-61
2023/05/08 06:45:07;;;;;;;;;8.00;7.00;;;;;12.55;47.08;99944.38;5984176;29;96409;-61
2023/05/08 06:48:11;;;;;;;;;6.00;5.00;;;;;12.79;46.57;99942.91;5984926;29;96483;-61
2023/05/08 06:51:14;;;;;;;;;6.00;6.00;;;;;13.20;46.27;99951.56;5986528;29;96392;-61
2023/05/08 06:54:17;;;;;;;;;6.00;6.00;;;;;13.35;45.10;99954.03;5986124;29;96473;-61
2023/05/08 06:57:21;;;;;;;;;6.40;5.80;;;;;13.57;45.37;99949.16;5986144;29;98285;-61
2023/05/08 07:00:26;;;;;;;;;6.25;6.00;;;;;13.87;44.87;99958.41;5986466;29;96258;-61
2023/05/08 07:03:30;;;;;;;;;6.75;6.75;;;;;14.27;43.84;99948.09;5985066;29;96206;-61
2023/05/08 07:06:33;;;;;;;;;7.00;7.00;;;;;14.68;42.40;99963.91;5984823;29;96459;-61
2023/05/08 07:09:36;;;;;;;;;5.00;4.00;;;;;14.49;41.52;99954.88;5981914;29;96789;-61
2023/05/08 07:12:40;;;;;;;;;5.20;5.00;;;;;14.79;42.01;99968.59;6006550;29;96244;-61
2023/05/08 07:15:44;;;;;;;;;6.75;6.00;;;;;15.08;41.00;99958.91;5990651;29;96243;-61
2023/05/08 07:18:48;;;;;;;;;4.80;3.80;;;;;15.37;39.51;99968.22;5982503;29;96627;-61
2023/05/08 07:21:51;;;;;;;;;4.00;3.75;;;;;15.81;39.88;99962.47;5983882;29;99172;-61
2023/05/08 07:24:54;;;;;;;;;5.00;5.00;;;;;15.84;39.63;99966.59;5991243;29;96139;-61
2023/05/08 07:27:58;;;;;;;;;5.60;5.00;;;;;16.11;37.99;99965.19;5990325;29;98713;-61
2023/05/08 07:31:07;;;;;;;;;7.00;7.00;;;;;15.63;38.75;99973.38;5991520;29;96351;-61
2023/05/08 07:34:10;;;;;;;;;6.00;6.00;;;;;15.80;38.21;99970.84;5991532;29;96574;-61
2023/05/08 07:37:13;;;;;;;;;4.00;4.00;;;;;16.04;38.93;99978.88;5990860;29;96314;-61
2023/05/08 07:40:17;;;;;;;;;5.40;5.40;;;;;16.06;39.10;99980.56;5990452;29;96519;-61
2023/05/08 07:43:20;;;;;;;;;6.00;6.00;;;;;15.84;37.55;99974.75;5975709;29;98312;-61
2023/05/08 07:46:25;;;;;;;;;5.60;5.60;;;;;16.11;38.14;99986.13;5990019;29;98460;-61
2023/05/08 07:49:28;;;;;;;;;9.00;8.00;;;;;16.07;38.37;99977.59;5991435;29;96864;-61
2023/05/08 07:52:31;;;;;;;;;8.00;7.50;;;;;15.33;38.19;99980.59;5992713;29;96929;-61
2023/05/08 07:55:35;;;;;;;;;8.00;8.00;;;;;15.14;39.64;99977.88;5992140;29;96261;-61
2023/05/08 07:58:39;;;;;;;;;5.60;5.60;;;;;14.60;39.57;99985.91;5991215;29;96347;-61
2023/05/08 08:01:46;;;;;;;;;5.60;5.40;;;;;14.65;40.75;99986.91;5986756;29;96506;-61
2023/05/08 08:04:49;;;;;;;;;7.00;7.00;;;;;14.63;41.32;99989.00;5988779;29;96359;-61
2023/05/08 08:07:52;;;;;;;;;10.80;9.00;;;;;14.54;40.97;99957.75;5988289;29;97058;-60
2023/05/08 08:10:56;;;;;;;;;8.00;8.00;;;;;14.78;41.29;99979.69;6002157;29;96528;-61
2023/05/08 08:14:00;;;;;;;;;6.00;6.00;;;;;14.98;40.97;99977.63;5989753;29;96225;-61
2023/05/08 08:17:04;;;;;;;;;7.00;7.00;;;;;14.90;40.84;99959.75;6004015;29;96392;-61
2023/05/08 08:20:09;;;;;;;;;7.00;6.00;;;;;14.67;40.68;99975.78;5972290;29;97762;-61
2023/05/08 08:23:12;;;;;;;;;6.20;6.00;;;;;14.46;41.85;99979.75;5991726;29;96545;-61
2023/05/08 08:26:16;;;;;;;;;5.40;5.40;;;;;14.49;41.82;99979.28;5991124;29;98566;-61
2023/05/08 08:29:19;;;;;;;;;6.00;6.00;;;;;14.26;41.82;99985.28;5991851;29;96389;-61
2023/05/08 08:32:24;;;;;;;;;5.60;5.00;;;;;14.27;41.92;99988.78;5991930;29;96266;-61
2023/05/08 08:35:28;;;;;;;;;7.00;6.60;;;;;14.22;42.59;99984.03;5992517;29;96270;-61
2023/05/08 08:38:31;;;;;;;;;9.00;9.00;;;;;14.22;41.99;99980.50;5990596;29;96251;-61
2023/05/08 08:41:35;;;;;;;;;6.00;6.00;;;;;14.10;41.08;99968.69;5995256;29;96845;-60
2023/05/08 08:44:38;;;;;;;;;6.50;6.50;;;;;14.16;41.88;99955.09;6029315;29;96407;-61
2023/05/08 08:47:45;;;;;;;;;6.00;6.00;;;;;14.24;40.63;99997.38;6014378;29;96302;-61
2023/05/08 08:50:53;;;;;;;;;5.00;5.00;;;;;14.27;41.16;99986.09;6012451;29;96714;-61
2023/05/08 08:54:04;;;;;;;;;5.20;4.20;;;;;14.50;41.44;99983.69;6014172;29;96283;-61
2023/05/08 08:57:09;;;;;;;;;5.50;5.50;;;;;14.51;41.10;99971.78;6029053;29;97142;-60
2023/05/08 09:00:14;;;;;;;;;6.60;6.00;;;;;14.22;40.67;99988.66;6028873;29;96425;-60
2023/05/08 09:03:19;;;;;;;;;5.00;5.00;;;;;14.42;41.76;99977.66;6014563;29;96868;-61
2023/05/08 09:06:22;;;;;;;;;6.40;5.40;;;;;14.78;40.52;99985.09;6013905;29;96403;-61
2023/05/08 09:09:27;;;;;;;;;5.80;4.80;;;;;15.14;40.54;99986.03;6012820;29;97645;-61
2023/05/08 09:12:31;;;;;;;;;4.20;4.20;;;;;15.43;39.85;99991.78;6014719;29;96307;-61
2023/05/08 09:15:34;;;;;;;;;5.00;5.00;;;;;15.25;38.69;99994.50;6014786;29;97080;-61
2023/05/08 09:18:38;;;;;;;;;7.25;6.75;;;;;14.93;39.69;99996.47;6014063;29;96375;-61
2023/05/08 09:21:41;;;;;;;;;7.00;7.00;;;;;14.60;39.28;99985.91;6014036;29;96338;-61
2023/05/08 09:24:56;;;;;;;;;4.80;4.80;;;;;14.63;40.29;99999.84;6014343;29;96321;-61
2023/05/08 09:28:15;;;;;;;;;5.00;4.00;;;;;14.26;40.95;100000.72;6010637;29;96879;-61
2023/05/08 09:31:18;;;;;;;;;6.00;6.00;;;;;14.56;40.79;99990.09;6012164;29;96395;-61
2023/05/08 09:34:26;;;;;;;;;8.00;7.00;;;;;14.75;41.56;99991.81;6012989;29;96265;-61
2023/05/08 09:37:29;;;;;;;;;5.00;5.00;;;;;15.09;40.46;100004.06;6011325;29;96430;-61
2023/05/08 09:40:33;;;;;;;;;8.00;7.00;;;;;15.20;40.34;99997.84;6012440;29;96544;-62
2023/05/08 09:43:36;;;;;;;;;6.60;5.60;;;;;15.31;39.90;99994.41;6013499;29;96278;-61
2023/05/08 09:46:39;;;;;;;;;7.60;7.00;;;;;15.22;39.56;99990.31;6011713;29;96198;-61
2023/05/08 09:49:58;;;;;;;;;10.00;8.40;;;;;15.34;39.67;99993.97;6011736;29;98483;-61
2023/05/08 09:53:01;;;;;;;;;6.20;5.00;;;;;15.58;39.53;99997.69;6012621;29;97991;-61
2023/05/08 09:56:05;;;;;;;;;5.00;5.00;;;;;15.68;39.72;99998.00;6010822;29;98882;-61
2023/05/08 09:59:23;;;;;;;;;5.40;5.40;;;;;15.86;39.38;100006.13;6012271;29;96399;-61
2023/05/08 10:02:26;;;;;;;;;5.00;5.00;;;;;15.87;39.35;100005.06;6012117;29;96347;-61
2023/05/08 10:05:33;;;;;;;;;6.00;6.00;;;;;15.80;38.43;100004.31;6012061;29;96238;-61
2023/05/08 10:08:36;;;;;;;;;6.40;6.00;;;;;14.97;39.12;100012.09;6013169;29;96375;-61
2023/05/08 10:11:40;;;;;;;;;8.00;8.00;;;;;14.57;40.01;100010.75;6005610;29;97704;-61
2023/05/08 10:14:43;;;;;;;;;6.00;5.60;;;;;14.42;40.41;100002.91;6011249;29;96754;-61
2023/05/08 10:17:55;;;;;;;;;7.00;6.00;;;;;14.90;41.29;99991.50;6011845;29;96286;-61
2023/05/08 10:21:05;;;;;;;;;7.75;7.75;;;;;14.92;39.60;99981.22;6010815;29;98893;-61
2023/05/08 10:24:14;;;;;;;;;6.00;5.60;;;;;14.68;40.31;99988.31;5999839;29;96346;-61
2023/05/08 10:27:23;;;;;;;;;8.00;8.00;;;;;14.67;40.87;99994.78;5987564;29;96929;-61
2023/05/08 10:30:27;;;;;;;;;5.20;5.20;;;;;14.24;40.62;99981.09;5989291;29;96236;-61
2023/05/08 10:33:31;;;;;;;;;8.00;7.00;;;;;14.35;41.54;100002.13;5989736;29;96372;-61
2023/05/08 10:36:36;;;;;;;;;7.80;7.00;;;;;13.90;41.81;99995.91;5988600;29;96360;-61
2023/05/08 10:39:42;;;;;;;;;6.00;5.80;;;;;13.86;42.13;99984.69;6001646;29;97001;-61
2023/05/08 10:42:45;;;;;;;;;6.00;6.00;;;;;14.19;42.56;99994.50;6002979;29;96324;-61
2023/05/08 10:45:49;;;;;;;;;7.60;7.00;;;;;14.24;41.77;99991.94;5987781;29;96676;-61
2023/05/08 10:49:00;;;;;;;;;8.40;8.00;;;;;14.37;41.91;99981.03;5988398;29;96838;-61
2023/05/08 10:52:16;;;;;;;;;7.00;6.25;;;;;14.64;41.27;99982.50;5988443;29;96533;-61
2023/05/08 10:55:23;;;;;;;;;6.00;6.00;;;;;14.86;40.79;99976.66;6002709;29;96333;-61
2023/05/08 10:58:30;;;;;;;;;6.60;6.60;;;;;14.96;40.23;99979.72;5992046;29;96889;-61
2023/05/08 11:01:39;;;;;;;;;7.40;7.00;;;;;14.99;40.78;99985.56;6012265;29;96326;-61
2023/05/08 11:04:43;;;;;;;;;8.00;6.40;;;;;15.24;39.72;99974.63;6010909;29;96854;-61
2023/05/08 11:07:58;;;;;;;;;4.00;4.00;;;;;16.08;38.87;99976.53;6026369;29;96301;-60
2023/05/08 11:11:10;;;;;;;;;7.00;6.00;;;;;16.26;38.94;99975.66;6009457;29;96702;-61
2023/05/08 11:14:16;;;;;;;;;6.50;6.00;;;;;16.12;37.77;99977.75;6009411;29;96296;-61
2023/05/08 11:17:23;;;;;;;;;5.40;5.40;;;;;16.16;38.31;99976.22;6009729;29;96351;-60
2023/05/08 11:20:38;;;;;;;;;6.75;5.75;;;;;16.11;37.73;99973.34;6008966;29;96674;-61
2023/05/08 11:23:43;;;;;;;;;6.00;6.00;;;;;15.88;38.14;99965.91;6009753;29;96940;-61
2023/05/08 11:26:49;;;;;;;;;9.80;9.40;;;;;16.27;38.52;99969.16;6011267;29;96339;-61
2023/05/08 11:30:23;;;;;;;;;8.00;8.00;;;;;16.17;37.59;99971.59;6004712;29;96316;-60
2023/05/08 11:33:30;;;;;;;;;9.00;9.00;;;;;15.96;37.92;99965.63;6011170;29;96313;-61
2023/05/08 11:36:36;;;;;;;;;8.00;8.00;;;;;15.67;38.14;99966.41;6011975;29;96922;-60
2023/05/08 11:39:41;;;;;;;;;8.00;8.00;;;;;15.56;38.55;99970.72;6008890;29;99238;-61
2023/05/08 11:42:44;;;;;;;;;11.00;9.00;;;;;15.75;38.65;99973.41;6009857;29;96331;-61
2023/05/08 11:45:47;;;;;;;;;7.00;6.00;;;;;15.31;38.31;99983.53;6009325;29;96638;-60
2023/05/08 11:49:00;;;;;;;;;9.00;8.60;;;;;15.05;38.39;99971.03;6010997;29;96596;-60
2023/05/08 11:52:05;;;;;;;;;8.40;8.00;;;;;15.07;38.79;99970.84;5981864;29;99427;-60
2023/05/08 11:55:11;;;;;;;;;11.00;10.50;;;;;15.49;39.14;99972.66;6009559;29;96340;-61
2023/05/08 11:58:15;;;;;;;;;6.00;6.00;;;;;15.51;38.44;99964.31;6015203;29;96277;-61
2023/05/08 12:01:20;;;;;;;;;8.00;8.00;;;;;15.67;37.99;99960.16;6013523;29;96443;-61
2023/05/08 12:04:23;;;;;;;;;5.20;5.00;;;;;15.62;38.27;99949.97;6012072;29;98686;-61
2023/05/08 12:07:27;;;;;;;;;7.40;7.00;;;;;15.94;38.60;99956.84;5999791;29;96332;-60
2023/05/08 12:10:32;;;;;;;;;5.20;5.20;;;;;16.11;38.56;99957.03;6013516;29;96592;-61
2023/05/08 12:13:35;;;;;;;;;4.00;3.00;;;;;16.20;37.79;99957.53;5997267;29;97075;-61
2023/05/08 12:16:40;;;;;;;;;5.60;5.00;;;;;16.20;36.50;99949.38;6013686;29;96267;-61
2023/05/08 12:19:43;;;;;;;;;6.00;5.40;;;;;16.31;36.68;99960.28;6013199;29;96307;-60
2023/05/08 12:22:51;;;;;;;;;6.00;5.50;;;;;16.56;36.66;99960.09;6015417;29;96568;-60
2023/05/08 12:25:59;;;;;;;;;4.00;4.00;;;;;16.78;36.40;99947.59;5991742;29;96865;-61
2023/05/08 12:29:02;;;;;;;;;6.00;5.00;;;;;16.96;36.80;99954.81;6015063;29;96297;-61
2023/05/08 12:32:05;;;;;;;;;5.00;5.00;;;;;17.30;36.89;99953.94;6001387;29;96246;-61
2023/05/08 12:35:11;;;;;;;;;5.40;5.00;;;;;17.58;35.61;99955.09;6013239;29;97483;-61
2023/05/08 12:38:14;;;;;;;;;5.00;5.00;;;;;17.72;36.13;99951.06;6015648;29;96317;-61
2023/05/08 12:41:25;;;;;;;;;8.00;8.00;;;;;17.78;35.10;99946.53;6015787;29;99010;-61
2023/05/08 12:44:30;;;;;;;;;4.75;4.75;;;;;17.41;35.09;99943.28;5987618;29;96363;-61
2023/05/08 12:47:33;;;;;;;;;4.60;4.00;;;;;17.23;35.03;99947.81;6011655;29;96308;-61
2023/05/08 12:50:39;;;;;;;;;7.25;7.25;;;;;17.37;35.93;99947.56;6015438;29;96818;-61
2023/05/08 12:53:42;;;;;;;;;3.00;3.00;;;;;17.22;35.02;99937.97;6017070;29;96353;-61
2023/05/08 12:56:46;;;;;;;;;7.00;5.00;;;;;16.59;34.86;99950.66;6015650;29;96235;-61
2023/05/08 12:59:49;;;;;;;;;4.00;4.00;;;;;16.64;35.90;99940.72;6015430;29;96748;-61
2023/05/08 13:02:55;;;;;;;;;6.00;6.00;;;;;16.86;36.51;99943.69;6015977;29;96418;-61
2023/05/08 13:05:59;;;;;;;;;8.00;8.00;;;;;17.10;36.26;99941.81;6014814;29;96816;-61
2023/05/08 13:09:02;;;;;;;;;7.00;6.00;;;;;17.18;36.17;99950.44;6015019;29;96359;-61
2023/05/08 13:12:07;;;;;;;;;5.00;4.00;;;;;17.26;35.64;99943.78;6014125;29;96862;-61
2023/05/08 13:15:10;;;;;;;;;4.00;4.00;;;;;17.37;35.93;99944.81;5998543;29;96355;-61
2023/05/08 13:18:15;;;;;;;;;7.00;7.00;;;;;17.12;35.19;99940.47;6012690;29;96260;-61
2023/05/08 13:21:19;;;;;;;;;7.00;6.00;;;;;17.24;35.94;99943.19;5975896;29;97486;-62
2023/05/08 13:24:22;;;;;;;;;5.00;5.00;;;;;17.12;34.50;99939.66;5962811;29;98508;-61
2023/05/08 13:27:27;;;;;;;;;5.00;5.00;;;;;16.94;34.54;99932.44;5998144;29;96779;-61
2023/05/08 13:30:30;;;;;;;;;6.00;6.00;;;;;16.90;35.63;99939.44;5998063;29;96351;-61
2023/05/08 13:33:36;;;;;;;;;8.00;7.40;;;;;16.86;35.71;99943.69;5996867;29;96955;-61
2023/05/08 13:36:39;;;;;;;;;3.20;3.00;;;;;16.89;35.56;99944.06;5995957;29;96584;-61
2023/05/08 13:39:43;;;;;;;;;6.00;5.20;;;;;16.61;35.48;99941.22;5991797;29;96629;-61
2023/05/08 13:42:47;;;;;;;;;5.00;4.80;;;;;16.40;35.84;99936.28;5996237;29;98559;-61
2023/05/08 13:45:50;;;;;;;;;3.40;3.40;;;;;16.30;36.73;99942.31;5997909;29;96920;-61
2023/05/08 13:48:53;;;;;;;;;4.00;4.00;;;;;16.07;36.61;99941.41;5995574;29;97051;-61
2023/05/08 13:51:56;;;;;;;;;6.00;5.80;;;;;16.11;36.84;99940.72;5982142;29;96408;-61
2023/05/08 13:54:59;;;;;;;;;3.75;3.75;;;;;16.24;37.17;99943.22;5977866;29;96838;-61
2023/05/08 13:58:05;;;;;;;;;5.00;4.00;;;;;16.38;36.93;99925.63;5972596;29;97662;-61
2023/05/08 14:01:08;;;;;;;;;4.40;4.00;;;;;16.76;36.78;99935.31;5974163;29;96493;-61
2023/05/08 14:04:28;;;;;;;;;5.20;4.00;;;;;17.13;36.25;99936.69;5974666;29;97373;-61
2023/05/08 14:07:31;;;;;;;;;6.80;6.00;;;;;16.83;35.42;99936.00;5971369;29;97250;-61
2023/05/08 14:10:34;;;;;;;;;6.00;4.40;;;;;17.13;35.50;99936.69;5974735;29;97480;-61
2023/05/08 14:13:39;;;;;;;;;5.00;5.00;;;;;17.58;36.33;99927.84;5974286;29;96538;-61
2023/05/08 14:16:44;;;;;;;;;7.00;6.00;;;;;17.56;35.27;99929.97;5973279;29;96672;-62
2023/05/08 14:19:48;;;;;;;;;3.00;3.00;;;;;17.44;33.73;99921.84;5973526;29;96413;-61
2023/05/08 14:22:51;;;;;;;;;6.60;6.00;;;;;17.50;35.13;99922.75;5974356;29;96255;-61
2023/05/08 14:25:55;;;;;;;;;5.80;5.20;;;;;17.47;34.94;99931.41;5974090;29;96667;-61
2023/05/08 14:29:00;;;;;;;;;6.00;6.00;;;;;17.34;34.85;99935.25;5974168;29;96435;-61
2023/05/08 14:32:04;;;;;;;;;7.00;6.00;;;;;17.15;34.95;99918.19;5972994;29;96307;-61
2023/05/08 14:35:09;;;;;;;;;5.00;5.00;;;;;17.11;34.32;99927.09;5970045;29;96365;-61